Time;durP1;ratioP1;P1;durP2;ratioP2;P2;SDS_P1;SDS_P2;PMS_P1;PMS_P2;Temp;Humidity;BMP_temperature;BMP_pressure;BME280_temperature;BME280_humidity;BME280_pressure;Samples;Min_cycle;Max_cycle;Signal;HPM_P1;HPM_P2
2023/04/17 00:00:43;;;;;;;53.87;37.70;;;10.60;99.90;;;;;;6225049;23;20392;-73
2023/04/17 00:03:12;;;;;;;63.23;43.70;;;10.50;99.90;;;;;;6224810;23;20491;-73
2023/04/17 00:05:39;;;;;;;60.57;39.50;;;10.50;99.90;;;;;;6198282;23;20176;-72
2023/04/17 00:08:05;;;;;;;59.60;38.97;;;10.50;99.90;;;;;;6194928;23;20638;-72
2023/04/17 00:10:30;;;;;;;56.67;40.90;;;10.50;99.90;;;;;;6219463;23;20491;-71
2023/04/17 00:12:56;;;;;;;58.43;39.67;;;10.60;99.90;;;;;;6219690;23;20444;-72
2023/04/17 00:15:22;;;;;;;51.10;35.33;;;10.60;99.90;;;;;;6219636;23;20138;-72
2023/04/17 00:17:47;;;;;;;55.87;42.50;;;10.50;99.90;;;;;;6219818;23;20377;-72
2023/04/17 00:20:13;;;;;;;49.00;36.97;;;10.50;99.90;;;;;;6219193;23;20672;-72
2023/04/17 00:22:39;;;;;;;57.60;40.17;;;10.50;99.90;;;;;;6219788;23;20138;-72
2023/04/17 00:25:05;;;;;;;54.73;38.17;;;10.50;99.90;;;;;;6220502;23;20384;-73
2023/04/17 00:27:31;;;;;;;53.60;38.63;;;10.50;99.90;;;;;;6222938;23;20405;-73
2023/04/17 00:29:56;;;;;;;46.53;33.90;;;10.40;99.90;;;;;;6222291;23;20520;-73
2023/04/17 00:32:22;;;;;;;56.07;39.27;;;10.50;99.90;;;;;;6219912;23;20134;-74
2023/04/17 00:34:49;;;;;;;52.90;34.13;;;10.50;99.90;;;;;;6220079;23;20131;-74
2023/04/17 00:37:15;;;;;;;62.90;41.70;;;10.50;99.90;;;;;;6219188;23;20209;-73
2023/04/17 00:39:41;;;;;;;55.63;38.03;;;10.50;99.90;;;;;;6219175;23;20399;-73
2023/04/17 00:42:06;;;;;;;54.43;37.93;;;10.50;99.90;;;;;;6193633;23;20389;-72
2023/04/17 00:44:32;;;;;;;50.10;35.43;;;10.40;99.90;;;;;;6219897;23;20134;-73
2023/04/17 00:46:58;;;;;;;63.50;42.80;;;10.40;99.90;;;;;;6220016;23;20134;-72
2023/04/17 00:49:24;;;;;;;54.23;35.70;;;10.40;99.90;;;;;;6220769;23;20269;-73
2023/04/17 00:51:51;;;;;;;56.00;42.13;;;10.40;99.90;;;;;;6220041;23;20130;-72
2023/04/17 00:54:18;;;;;;;56.20;39.27;;;10.30;99.90;;;;;;6193171;23;20424;-72
2023/04/17 00:56:44;;;;;;;62.73;40.30;;;10.30;99.90;;;;;;6193217;23;20697;-72
2023/04/17 00:59:15;;;;;;;51.17;38.07;;;10.20;99.90;;;;;;6192451;23;20484;-72
2023/04/17 01:01:41;;;;;;;57.33;38.20;;;10.20;99.90;;;;;;6192739;23;20464;-72
2023/04/17 01:04:08;;;;;;;71.67;43.83;;;10.10;99.90;;;;;;6192738;23;20705;-72
2023/04/17 01:06:35;;;;;;;57.87;36.00;;;10.10;99.90;;;;;;6193008;23;20525;-72
2023/04/17 01:09:01;;;;;;;59.10;40.47;;;10.20;99.90;;;;;;6218608;23;20456;-72
2023/04/17 01:11:27;;;;;;;60.20;38.87;;;10.10;99.90;;;;;;6187335;23;20479;-73
2023/04/17 01:13:53;;;;;;;65.77;43.17;;;10.20;99.90;;;;;;6189003;23;20401;-73
2023/04/17 01:16:19;;;;;;;53.23;38.00;;;10.20;99.90;;;;;;6188987;23;20134;-73
2023/04/17 01:18:47;;;;;;;55.97;39.50;;;10.30;99.90;;;;;;6187198;23;20409;-72
2023/04/17 01:21:13;;;;;;;63.67;42.40;;;10.20;99.90;;;;;;6189113;23;20366;-73
2023/04/17 01:23:48;;;;;;;61.20;42.03;;;10.30;99.90;;;;;;6187581;23;20472;-73
2023/04/17 01:26:24;;;;;;;62.40;45.70;;;10.30;99.90;;;;;;6163553;23;20808;-73
2023/04/17 01:28:52;;;;;;;62.10;43.10;;;10.30;99.90;;;;;;6187325;23;20433;-73
2023/04/17 01:31:19;;;;;;;54.97;37.87;;;10.40;99.90;;;;;;6187843;23;20370;-73
2023/04/17 01:33:45;;;;;;;53.73;42.57;;;10.30;99.90;;;;;;6189800;23;20369;-72
2023/04/17 01:36:11;;;;;;;63.30;44.83;;;10.30;99.90;;;;;;6189149;23;20354;-72
2023/04/17 01:38:37;;;;;;;54.17;39.30;;;10.30;99.90;;;;;;6188656;23;20381;-72
2023/04/17 01:41:08;;;;;;;60.00;42.37;;;10.30;99.90;;;;;;6187579;23;20431;-73
2023/04/17 01:43:37;;;;;;;59.23;38.50;;;10.30;99.90;;;;;;6187649;23;20158;-72
2023/04/17 01:46:02;;;;;;;48.27;34.00;;;10.30;99.90;;;;;;6187183;23;20380;-72
2023/04/17 01:48:28;;;;;;;54.00;37.90;;;10.30;99.90;;;;;;6186860;23;20492;-71
2023/04/17 01:50:53;;;;;;;61.63;40.87;;;10.30;99.90;;;;;;6187571;23;20131;-73
2023/04/17 01:53:19;;;;;;;51.90;36.27;;;10.30;99.90;;;;;;6188953;23;20201;-74
2023/04/17 01:55:45;;;;;;;49.20;35.47;;;10.30;99.90;;;;;;6188948;23;20213;-72
2023/04/17 01:58:11;;;;;;;60.30;44.10;;;10.30;99.90;;;;;;6187559;23;20394;-72
2023/04/17 02:00:36;;;;;;;60.17;43.33;;;10.30;99.90;;;;;;6186981;23;20238;-72
2023/04/17 02:03:02;;;;;;;59.73;42.77;;;10.40;99.90;;;;;;6187476;23;20190;-71
2023/04/17 02:05:28;;;;;;;49.73;36.30;;;10.40;99.90;;;;;;6187507;23;20370;-72
2023/04/17 02:07:53;;;;;;;61.37;43.10;;;10.40;99.90;;;;;;6188561;23;20500;-72
2023/04/17 02:10:19;;;;;;;51.63;37.70;;;10.40;99.90;;;;;;6187847;23;20638;-72
2023/04/17 02:12:45;;;;;;;67.20;42.97;;;10.30;99.90;;;;;;6212060;23;20609;-71
2023/04/17 02:15:11;;;;;;;58.90;39.30;;;10.30;99.90;;;;;;6217927;23;20180;-72
2023/04/17 02:17:37;;;;;;;54.03;39.23;;;10.30;99.90;;;;;;6192060;23;20142;-73
2023/04/17 02:20:05;;;;;;;55.40;38.47;;;10.30;99.90;;;;;;6191420;23;20462;-72
2023/04/17 02:22:31;;;;;;;61.67;44.20;;;10.20;99.90;;;;;;6191942;23;20769;-72
2023/04/17 02:24:57;;;;;;;49.87;38.03;;;10.20;99.90;;;;;;6218435;23;20362;-73
2023/04/17 02:27:25;;;;;;;61.93;43.80;;;10.20;99.90;;;;;;6218471;23;20750;-72
2023/04/17 02:29:50;;;;;;;48.17;36.83;;;10.20;99.90;;;;;;6217728;23;20519;-73
2023/04/17 02:32:17;;;;;;;54.03;39.10;;;10.10;99.90;;;;;;6218354;23;20181;-73
2023/04/17 02:34:43;;;;;;;50.47;38.50;;;10.10;99.90;;;;;;6191773;23;20365;-73
2023/04/17 02:37:09;;;;;;;60.20;40.80;;;10.10;99.90;;;;;;6192015;23;20896;-72
2023/04/17 02:39:35;;;;;;;63.63;43.43;;;10.10;99.90;;;;;;6166705;23;20389;-72
2023/04/17 02:42:02;;;;;;;50.53;36.97;;;10.10;99.90;;;;;;6167538;23;20408;-73
2023/04/17 02:44:28;;;;;;;50.13;38.70;;;10.10;99.90;;;;;;6191754;23;20404;-72
2023/04/17 02:46:53;;;;;;;48.90;36.63;;;10.10;99.90;;;;;;6218253;23;20369;-72
2023/04/17 02:49:20;;;;;;;57.33;41.83;;;10.10;99.90;;;;;;6191171;23;20562;-72
2023/04/17 02:51:46;;;;;;;59.83;39.77;;;10.20;99.90;;;;;;6218112;23;20126;-73
2023/04/17 02:54:11;;;;;;;53.20;39.67;;;10.20;99.90;;;;;;6191728;23;20368;-72
2023/04/17 02:56:37;;;;;;;50.97;36.37;;;10.20;99.90;;;;;;6218581;23;20388;-72
2023/04/17 02:59:03;;;;;;;71.30;43.40;;;10.20;99.90;;;;;;6217919;23;20162;-72
2023/04/17 03:01:28;;;;;;;54.23;40.97;;;10.30;99.90;;;;;;6191856;23;20220;-72
2023/04/17 03:03:55;;;;;;;53.87;40.33;;;10.20;99.90;;;;;;6191009;23;20534;-73
2023/04/17 03:06:22;;;;;;;61.17;40.00;;;10.20;99.90;;;;;;6194266;23;20397;-75
2023/04/17 03:08:49;;;;;;;48.00;36.00;;;10.20;99.90;;;;;;6194347;23;20416;-71
2023/04/17 03:11:15;;;;;;;52.87;39.37;;;10.20;99.90;;;;;;6196716;23;20424;-72
2023/04/17 03:13:40;;;;;;;69.60;41.67;;;10.20;99.90;;;;;;6222936;23;20369;-73
2023/04/17 03:16:06;;;;;;;56.77;41.97;;;10.20;99.90;;;;;;6221757;23;20503;-73
2023/04/17 03:18:39;;;;;;;51.53;39.30;;;10.20;99.90;;;;;;6171872;23;20134;-73
2023/04/17 03:21:05;;;;;;;53.10;37.97;;;10.20;99.90;;;;;;6199865;23;20385;-73
2023/04/17 03:23:31;;;;;;;49.20;33.97;;;10.20;99.90;;;;;;6196405;23;20385;-72
2023/04/17 03:25:58;;;;;;;51.47;37.20;;;10.10;99.90;;;;;;6196196;23;20448;-73
2023/04/17 03:28:24;;;;;;;49.83;37.63;;;10.10;99.90;;;;;;6196799;23;20550;-72
2023/04/17 03:30:50;;;;;;;50.77;37.53;;;10.10;99.90;;;;;;6191115;23;20536;-73
2023/04/17 03:33:16;;;;;;;56.57;40.00;;;10.10;99.90;;;;;;6191474;23;20369;-74
2023/04/17 03:35:43;;;;;;;57.70;41.27;;;10.10;99.90;;;;;;6191957;23;20365;-72
2023/04/17 03:38:09;;;;;;;54.57;40.57;;;10.10;99.90;;;;;;6191983;23;20385;-72
2023/04/17 03:40:35;;;;;;;50.23;37.93;;;10.10;99.90;;;;;;6194212;23;20413;-73
2023/04/17 03:43:01;;;;;;;58.67;41.63;;;10.10;99.90;;;;;;6195807;23;20369;-72
2023/04/17 03:45:26;;;;;;;48.70;36.67;;;10.10;99.90;;;;;;6174738;23;20173;-73
2023/04/17 03:47:52;;;;;;;52.37;36.57;;;10.00;99.90;;;;;;6202952;23;20134;-72
2023/04/17 03:50:18;;;;;;;46.27;36.43;;;10.00;99.90;;;;;;6194875;23;20178;-72
2023/04/17 03:52:49;;;;;;;51.67;35.90;;;10.00;99.90;;;;;;6191096;23;20200;-72
2023/04/17 03:55:15;;;;;;;56.50;40.27;;;10.00;99.90;;;;;;6191487;23;20369;-72
2023/04/17 03:57:43;;;;;;;45.83;33.77;;;10.00;99.90;;;;;;6191600;23;20200;-72
2023/04/17 04:00:09;;;;;;;53.30;39.83;;;10.00;99.90;;;;;;6194414;23;20408;-72
2023/04/17 04:02:43;;;;;;;51.73;39.30;;;10.00;99.90;;;;;;6217182;23;20141;-73
2023/04/17 04:05:09;;;;;;;50.00;35.70;;;10.00;99.90;;;;;;6191096;23;20369;-73
2023/04/17 04:07:36;;;;;;;51.97;37.30;;;10.00;99.90;;;;;;6190630;23;20424;-73
2023/04/17 04:10:02;;;;;;;55.60;40.33;;;10.00;99.90;;;;;;6217290;23;20475;-72
2023/04/17 04:12:28;;;;;;;56.07;40.93;;;10.00;99.90;;;;;;6186401;23;20252;-72
2023/04/17 04:14:54;;;;;;;53.87;39.50;;;10.00;99.90;;;;;;6188138;23;20453;-72
2023/04/17 04:17:20;;;;;;;45.43;33.10;;;10.00;99.90;;;;;;6188266;23;20143;-72
2023/04/17 04:19:46;;;;;;;45.23;32.70;;;10.00;99.90;;;;;;6188565;23;20181;-72
2023/04/17 04:22:12;;;;;;;47.63;34.60;;;10.00;99.90;;;;;;6190288;23;20386;-74
2023/04/17 04:24:45;;;;;;;44.03;30.97;;;10.00;99.90;;;;;;6193827;23;20493;-73
2023/04/17 04:27:16;;;;;;;58.23;37.00;;;10.00;99.90;;;;;;6191946;23;20370;-72
2023/04/17 04:29:47;;;;;;;46.80;34.40;;;9.90;99.90;;;;;;6192077;23;20781;-74
2023/04/17 04:32:15;;;;;;;49.13;36.47;;;10.00;99.90;;;;;;6195291;23;20424;-74
2023/04/17 04:34:44;;;;;;;51.27;39.90;;;10.00;99.90;;;;;;6193853;23;20377;-73
2023/04/17 04:37:14;;;;;;;46.43;36.40;;;10.00;99.90;;;;;;6193584;23;20393;-72
2023/04/17 04:39:42;;;;;;;49.83;34.07;;;10.00;99.90;;;;;;6192528;23;20186;-73
2023/04/17 04:42:11;;;;;;;49.30;36.33;;;9.90;99.90;;;;;;6187663;23;20794;-72
2023/04/17 04:44:51;;;;;;;47.10;35.63;;;9.90;99.90;;;;;;6187802;23;20425;-72
2023/04/17 04:47:18;;;;;;;49.20;33.90;;;9.90;99.90;;;;;;6187127;23;20427;-72
2023/04/17 04:49:46;;;;;;;48.97;33.60;;;9.90;99.90;;;;;;6187350;23;20939;-73
2023/04/17 04:52:14;;;;;;;46.67;36.40;;;9.90;99.90;;;;;;6187833;23;20424;-73
2023/04/17 04:54:40;;;;;;;47.57;35.33;;;9.90;99.90;;;;;;6188255;23;20763;-74
2023/04/17 04:57:06;;;;;;;46.77;35.17;;;9.90;99.90;;;;;;6187606;23;20213;-73
2023/04/17 04:59:33;;;;;;;49.77;36.03;;;9.90;99.90;;;;;;6188382;23;20789;-73
2023/04/17 05:02:20;;;;;;;43.47;33.10;;;9.90;99.90;;;;;;6188683;23;20373;-73
2023/04/17 05:04:47;;;;;;;45.00;32.30;;;9.90;99.90;;;;;;6187988;23;20370;-74
2023/04/17 05:07:13;;;;;;;44.77;33.23;;;9.80;99.90;;;;;;6187486;23;20795;-74
2023/04/17 05:09:42;;;;;;;50.70;37.53;;;9.90;99.90;;;;;;6187215;23;20429;-72
2023/04/17 05:12:08;;;;;;;48.57;36.23;;;10.00;99.90;;;;;;6187381;23;20426;-74
2023/04/17 05:14:34;;;;;;;42.73;32.23;;;9.90;99.90;;;;;;6186986;23;20436;-72
2023/04/17 05:17:00;;;;;;;39.57;31.27;;;9.90;99.90;;;;;;6186839;23;20385;-74
2023/04/17 05:19:28;;;;;;;40.33;30.60;;;9.90;99.90;;;;;;6185688;23;20170;-74
2023/04/17 05:21:59;;;;;;;43.97;34.00;;;9.90;99.90;;;;;;6187724;23;20378;-76
2023/04/17 05:24:24;;;;;;;49.07;33.70;;;9.90;99.90;;;;;;6188861;23;20828;-73
2023/04/17 05:26:50;;;;;;;45.03;33.60;;;10.00;99.90;;;;;;6189248;23;20523;-76
2023/04/17 05:29:17;;;;;;;45.00;33.83;;;10.10;99.90;;;;;;6187823;23;20575;-76
2023/04/17 05:31:43;;;;;;;47.83;34.10;;;10.10;99.90;;;;;;6191709;23;20381;-76
2023/04/17 05:34:21;;;;;;;41.50;31.27;;;10.10;99.90;;;;;;6175923;23;20142;-75
2023/04/17 05:36:48;;;;;;;39.37;31.30;;;10.10;99.90;;;;;;6196168;23;20378;-73
2023/04/17 05:39:13;;;;;;;41.90;31.37;;;10.20;99.90;;;;;;6195849;23;20433;-76
2023/04/17 05:41:39;;;;;;;33.80;26.30;;;10.20;99.90;;;;;;6171643;23;20159;-77
2023/04/17 05:44:06;;;;;;;42.57;31.70;;;10.10;99.90;;;;;;6197692;23;20134;-76
2023/04/17 05:46:31;;;;;;;40.90;32.40;;;10.20;99.90;;;;;;6200244;23;20161;-77
2023/04/17 05:48:57;;;;;;;41.10;32.30;;;10.30;99.90;;;;;;6172733;23;20422;-74
2023/04/17 05:51:23;;;;;;;32.93;27.87;;;10.30;99.90;;;;;;6198720;23;20177;-75
2023/04/17 05:53:48;;;;;;;37.23;29.87;;;10.20;99.90;;;;;;6199713;23;20149;-77
2023/04/17 05:56:14;;;;;;;41.60;32.07;;;10.20;99.90;;;;;;6197218;23;20393;-75
2023/04/17 05:58:40;;;;;;;42.97;30.80;;;10.30;99.90;;;;;;6172819;23;20340;-77
2023/04/17 06:01:07;;;;;;;38.87;31.10;;;10.40;99.90;;;;;;6201758;23;20150;-74
2023/04/17 06:03:33;;;;;;;38.60;30.47;;;10.50;99.90;;;;;;6174605;23;20393;-77
2023/04/17 06:06:11;;;;;;;37.60;30.77;;;10.50;99.90;;;;;;6197510;23;20362;-73
2023/04/17 06:08:36;;;;;;;34.70;27.70;;;10.60;99.90;;;;;;6199172;23;20695;-76
2023/04/17 06:11:03;;;;;;;35.20;28.53;;;10.60;99.90;;;;;;6176184;23;20185;-75
2023/04/17 06:13:29;;;;;;;43.43;33.13;;;10.60;99.90;;;;;;6177286;23;20383;-75
2023/04/17 06:15:56;;;;;;;36.03;28.60;;;10.70;99.90;;;;;;6177860;23;20674;-76
2023/04/17 06:18:21;;;;;;;37.63;29.20;;;10.70;99.90;;;;;;6204211;23;20375;-77
2023/04/17 06:20:48;;;;;;;37.20;29.67;;;10.70;99.90;;;;;;6203038;23;20154;-76
2023/04/17 06:23:14;;;;;;;34.73;28.33;;;10.80;99.90;;;;;;6181224;23;20379;-76
2023/04/17 06:25:41;;;;;;;37.90;30.00;;;10.80;99.90;;;;;;6180925;23;20251;-75
2023/04/17 06:28:06;;;;;;;32.07;26.50;;;10.80;99.90;;;;;;6232913;23;20436;-77
2023/04/17 06:30:33;;;;;;;42.90;31.57;;;10.80;99.90;;;;;;6178336;23;20405;-77
2023/04/17 06:32:59;;;;;;;32.80;25.67;;;10.90;99.90;;;;;;6205486;23;20376;-74
2023/04/17 06:35:24;;;;;;;35.10;28.03;;;10.90;99.90;;;;;;6230994;23;20192;-79
2023/04/17 06:37:58;;;;;;;35.23;28.27;;;10.80;99.90;;;;;;6182906;23;20138;-75
2023/04/17 06:40:25;;;;;;;36.73;29.60;;;11.00;99.90;;;;;;6229345;23;20392;-75
2023/04/17 06:42:51;;;;;;;34.73;27.07;;;11.00;99.90;;;;;;6231749;23;20380;-75
2023/04/17 06:45:20;;;;;;;36.17;28.37;;;11.00;99.90;;;;;;6181885;23;20146;-76
2023/04/17 06:47:45;;;;;;;32.70;26.90;;;11.10;99.90;;;;;;6180780;23;20379;-74
2023/04/17 06:50:15;;;;;;;34.67;27.67;;;11.10;99.90;;;;;;6177928;23;20725;-74
2023/04/17 06:52:41;;;;;;;29.73;23.60;;;11.10;99.90;;;;;;6228652;23;20691;-74
2023/04/17 06:55:08;;;;;;;33.47;26.50;;;11.10;99.90;;;;;;6232012;23;20372;-76
2023/04/17 06:57:34;;;;;;;38.00;28.80;;;11.10;99.90;;;;;;6202782;23;20383;-77
2023/04/17 07:00:00;;;;;;;33.00;27.20;;;11.10;99.90;;;;;;6177379;23;20401;-74
2023/04/17 07:02:26;;;;;;;32.40;25.40;;;11.10;99.90;;;;;;6232174;23;20130;-75
2023/04/17 07:04:53;;;;;;;34.63;28.00;;;11.10;99.90;;;;;;6229056;23;20407;-76
2023/04/17 07:07:19;;;;;;;38.00;28.43;;;11.20;99.90;;;;;;6177918;23;20449;-76
2023/04/17 07:09:47;;;;;;;34.50;27.03;;;11.20;99.90;;;;;;6201084;23;20420;-73
2023/04/17 07:12:16;;;;;;;34.60;28.30;;;11.20;99.90;;;;;;6197070;23;20449;-77
2023/04/17 07:14:42;;;;;;;38.10;28.60;;;11.20;99.90;;;;;;6172625;23;20862;-76
2023/04/17 07:17:08;;;;;;;35.27;28.93;;;11.30;99.90;;;;;;6199080;23;20366;-75
2023/04/17 07:19:34;;;;;;;39.13;30.10;;;11.20;99.90;;;;;;6178625;23;20468;-75
2023/04/17 07:21:59;;;;;;;36.67;29.60;;;11.20;99.90;;;;;;6201731;23;20377;-76
2023/04/17 07:24:25;;;;;;;32.50;27.77;;;11.30;99.90;;;;;;6183690;23;20370;-76
2023/04/17 07:26:51;;;;;;;34.60;26.20;;;11.40;99.90;;;;;;6201291;23;20143;-75
2023/04/17 07:29:17;;;;;;;33.83;26.47;;;11.40;99.90;;;;;;6198557;23;20187;-75
2023/04/17 07:31:42;;;;;;;33.10;26.73;;;11.30;99.90;;;;;;6196787;23;20131;-75
2023/04/17 07:34:08;;;;;;;39.27;28.43;;;11.30;99.90;;;;;;6197306;23;20139;-74
2023/04/17 07:36:34;;;;;;;41.70;32.87;;;11.20;99.90;;;;;;6202051;23;20433;-75
2023/04/17 07:39:00;;;;;;;33.13;24.50;;;11.20;99.90;;;;;;6199395;23;20166;-74
2023/04/17 07:41:26;;;;;;;36.77;29.23;;;11.30;99.90;;;;;;6200499;23;20182;-75
2023/04/17 07:43:51;;;;;;;35.87;27.90;;;11.40;99.90;;;;;;6175129;23;20366;-75
2023/04/17 07:46:17;;;;;;;34.37;29.20;;;11.40;99.90;;;;;;6198152;23;20533;-76
2023/04/17 07:48:43;;;;;;;37.50;31.00;;;11.60;99.90;;;;;;6196287;23;20174;-74
2023/04/17 07:51:09;;;;;;;40.70;32.57;;;11.80;99.90;;;;;;6199774;23;20145;-76
2023/04/17 07:53:36;;;;;;;38.97;30.90;;;11.90;99.90;;;;;;6201523;23;20159;-76
2023/04/17 07:56:01;;;;;;;36.97;29.70;;;12.00;99.90;;;;;;6201892;23;20350;-77
2023/04/17 07:58:27;;;;;;;38.20;30.57;;;11.80;99.90;;;;;;6176077;23;20389;-75
2023/04/17 08:00:53;;;;;;;39.87;30.53;;;11.70;99.90;;;;;;6200294;23;20400;-75
2023/04/17 08:03:20;;;;;;;35.63;29.57;;;11.70;99.90;;;;;;6199538;23;20135;-75
2023/04/17 08:05:47;;;;;;;41.30;33.77;;;11.70;99.90;;;;;;6197737;23;20151;-74
2023/04/17 08:08:14;;;;;;;37.30;30.50;;;11.70;99.90;;;;;;6202216;23;20443;-73
2023/04/17 08:10:40;;;;;;;46.90;30.03;;;11.70;99.90;;;;;;6177340;23;20438;-75
2023/04/17 08:13:05;;;;;;;37.23;32.40;;;11.70;99.90;;;;;;6207637;23;20414;-76
2023/04/17 08:15:31;;;;;;;34.10;28.80;;;11.80;99.90;;;;;;6204335;23;20128;-75
2023/04/17 08:17:57;;;;;;;34.93;28.60;;;11.70;99.90;;;;;;6203037;23;20135;-77
2023/04/17 08:20:23;;;;;;;35.27;28.57;;;11.70;99.90;;;;;;6175478;23;20218;-73
2023/04/17 08:22:49;;;;;;;32.23;28.33;;;11.70;99.90;;;;;;6200858;23;20381;-77
2023/04/17 08:25:15;;;;;;;37.00;27.00;;;11.70;99.90;;;;;;6177438;23;20409;-76
2023/04/17 08:27:41;;;;;;;32.63;27.23;;;11.80;99.90;;;;;;6177120;23;20143;-75
2023/04/17 08:30:10;;;;;;;32.43;25.37;;;11.90;99.90;;;;;;6200172;23;20450;-75
2023/04/17 08:32:40;;;;;;;30.47;26.60;;;12.00;99.90;;;;;;6173112;23;20376;-75
2023/04/17 08:35:06;;;;;;;32.37;25.07;;;12.40;99.90;;;;;;6201369;23;20902;-75
2023/04/17 08:37:34;;;;;;;31.67;24.27;;;12.80;99.90;;;;;;6201851;23;20405;-76
2023/04/17 08:40:00;;;;;;;27.03;20.70;;;13.10;99.80;;;;;;6200002;23;20386;-74
2023/04/17 08:42:29;;;;;;;26.97;22.17;;;13.40;98.70;;;;;;6206733;23;20390;-74
2023/04/17 08:45:04;;;;;;;26.33;22.10;;;13.60;96.30;;;;;;6201352;23;20647;-78
2023/04/17 08:47:29;;;;;;;23.63;19.70;;;13.90;92.90;;;;;;6203426;23;20421;-78
2023/04/17 08:49:56;;;;;;;25.20;22.30;;;13.90;92.40;;;;;;6176626;23;20435;-76
2023/04/17 08:52:22;;;;;;;25.13;22.33;;;13.80;90.80;;;;;;6205110;23;20223;-78
2023/04/17 08:54:49;;;;;;;24.10;19.23;;;13.60;92.00;;;;;;6179148;23;20394;-77
2023/04/17 08:57:14;;;;;;;24.83;20.40;;;13.40;94.00;;;;;;6182671;23;20643;-78
2023/04/17 08:59:44;;;;;;;24.23;21.43;;;13.50;94.50;;;;;;6204506;23;20393;-76
2023/04/17 09:02:11;;;;;;;26.97;21.50;;;13.60;92.50;;;;;;6202991;23;20164;-77
2023/04/17 09:04:42;;;;;;;23.90;19.27;;;13.60;92.30;;;;;;6177203;23;20405;-76
2023/04/17 09:07:10;;;;;;;24.07;18.10;;;13.60;92.20;;;;;;6177221;23;20402;-75
2023/04/17 09:10:05;;;;;;;23.87;17.83;;;13.60;93.00;;;;;;6178023;23;20426;-78
2023/04/17 09:12:31;;;;;;;25.00;20.07;;;13.50;92.20;;;;;;6185454;23;20429;-77
2023/04/17 09:14:56;;;;;;;21.27;18.10;;;13.60;91.30;;;;;;6178044;23;20691;-75
2023/04/17 09:17:22;;;;;;;20.50;17.77;;;13.80;90.50;;;;;;6205426;23;20136;-77
2023/04/17 09:20:06;;;;;;;19.70;17.40;;;14.00;88.20;;;;;;6205658;23;20170;-79
2023/04/17 09:22:33;;;;;;;20.03;16.33;;;14.20;81.90;;;;;;6181235;23;20149;-76
2023/04/17 09:24:59;;;;;;;20.00;14.90;;;14.30;80.50;;;;;;6180006;23;20385;-77
2023/04/17 09:27:26;;;;;;;15.87;14.17;;;14.40;79.00;;;;;;6177458;23;20374;-75
2023/04/17 09:30:19;;;;;;;17.43;13.83;;;14.70;78.30;;;;;;6177158;23;20504;-77
2023/04/17 09:32:44;;;;;;;22.70;16.90;;;14.90;72.10;;;;;;6202877;23;20728;-77
2023/04/17 09:35:21;;;;;;;19.37;17.07;;;15.00;67.60;;;;;;6203781;23;20373;-77
2023/04/17 09:37:50;;;;;;;21.80;18.30;;;15.10;68.20;;;;;;6181532;23;20142;-78
2023/04/17 09:40:17;;;;;;;19.80;17.70;;;15.00;67.90;;;;;;6177184;23;20401;-76
2023/04/17 09:43:02;;;;;;;22.33;18.80;;;15.00;68.30;;;;;;6202094;23;20461;-76
2023/04/17 09:45:35;;;;;;;20.43;17.50;;;14.90;66.70;;;;;;6205924;23;20708;-76
2023/04/17 09:48:08;;;;;;;25.00;19.73;;;14.70;67.80;;;;;;6203627;23;20361;-77
2023/04/17 09:50:34;;;;;;;22.53;20.10;;;14.60;67.40;;;;;;6176493;23;20429;-73
2023/04/17 09:53:02;;;;;;;23.90;18.40;;;14.40;69.40;;;;;;6179846;23;20465;-77
2023/04/17 09:55:31;;;;;;;23.83;18.43;;;14.30;70.20;;;;;;6204892;23;20436;-79
2023/04/17 09:58:04;;;;;;;17.10;15.20;;;14.10;70.80;;;;;;6178969;23;20373;-78
2023/04/17 10:00:30;;;;;;;27.03;19.50;;;14.00;73.20;;;;;;6205339;23;20444;-76
2023/04/17 10:02:59;;;;;;;24.40;17.13;;;14.20;73.80;;;;;;6179802;23;20381;-77
2023/04/17 10:05:27;;;;;;;18.60;16.23;;;14.30;72.90;;;;;;6178543;23;20465;-75
2023/04/17 10:07:54;;;;;;;21.57;18.17;;;14.30;70.90;;;;;;6203221;23;20377;-76
2023/04/17 10:10:29;;;;;;;18.97;15.40;;;14.40;66.80;;;;;;6176798;23;20421;-76
2023/04/17 10:12:59;;;;;;;21.33;16.00;;;14.40;66.10;;;;;;6229746;23;20400;-78
2023/04/17 10:15:25;;;;;;;17.10;15.30;;;14.20;63.60;;;;;;6182809;23;20368;-77
2023/04/17 10:17:52;;;;;;;16.00;13.30;;;14.10;62.30;;;;;;6232742;23;20383;-76
2023/04/17 10:20:22;;;;;;;15.00;13.00;;;14.10;63.00;;;;;;6208265;23;20407;-77
2023/04/17 10:22:55;;;;;;;16.23;13.63;;;14.10;60.00;;;;;;6235372;23;20615;-76
2023/04/17 10:25:23;;;;;;;15.67;13.10;;;14.10;59.80;;;;;;6234567;23;20663;-77
2023/04/17 10:27:54;;;;;;;16.27;13.20;;;14.20;59.70;;;;;;6184734;23;20441;-76
2023/04/17 10:30:25;;;;;;;20.93;13.67;;;14.20;58.90;;;;;;6231986;23;20451;-77
2023/04/17 10:33:18;;;;;;;16.67;14.03;;;14.40;58.40;;;;;;6206241;23;20408;-75
2023/04/17 10:35:44;;;;;;;15.37;12.70;;;14.40;58.20;;;;;;6232048;23;20378;-76
2023/04/17 10:38:10;;;;;;;15.83;14.00;;;14.60;57.70;;;;;;6182253;23;20375;-77
2023/04/17 10:40:37;;;;;;;14.30;12.13;;;14.80;56.70;;;;;;6208059;23;20411;-76
2023/04/17 10:43:13;;;;;;;15.67;13.70;;;15.10;56.40;;;;;;6231629;23;20136;-76
2023/04/17 10:46:00;;;;;;;18.20;13.60;;;15.40;55.50;;;;;;6179426;23;20694;-77
2023/04/17 10:48:27;;;;;;;15.70;12.73;;;15.50;54.20;;;;;;6205589;23;20391;-77
2023/04/17 10:50:54;;;;;;;14.60;10.80;;;15.70;54.00;;;;;;6232687;23;20451;-77
2023/04/17 10:53:39;;;;;;;17.80;13.17;;;15.80;53.40;;;;;;6180555;23;20373;-76
2023/04/17 10:56:05;;;;;;;12.27;10.57;;;15.90;51.60;;;;;;6206732;23;20364;-75
2023/04/17 10:58:31;;;;;;;12.53;11.30;;;15.80;51.40;;;;;;6230411;23;20380;-77
2023/04/17 11:01:02;;;;;;;13.80;11.80;;;15.70;51.20;;;;;;6183911;23;20719;-77
2023/04/17 11:03:29;;;;;;;17.00;11.53;;;15.70;51.30;;;;;;6183162;23;20361;-76
2023/04/17 11:05:57;;;;;;;13.60;11.23;;;15.70;50.80;;;;;;6183442;23;20385;-77
2023/04/17 11:08:23;;;;;;;19.37;11.70;;;15.70;51.10;;;;;;6183264;23;20400;-78
2023/04/17 11:10:55;;;;;;;13.33;10.70;;;15.60;51.70;;;;;;6205323;23;20444;-77
2023/04/17 11:13:21;;;;;;;13.03;11.00;;;15.70;51.20;;;;;;6233626;23;20330;-78
2023/04/17 11:15:46;;;;;;;14.73;12.00;;;15.80;51.20;;;;;;6180359;23;20345;-77
2023/04/17 11:18:12;;;;;;;13.50;11.40;;;15.90;51.40;;;;;;6207254;23;20377;-77
2023/04/17 11:20:39;;;;;;;14.70;11.87;;;16.00;50.70;;;;;;6183258;23;20442;-77
2023/04/17 11:23:08;;;;;;;12.87;10.73;;;16.10;50.50;;;;;;6210013;23;20402;-77
2023/04/17 11:25:34;;;;;;;16.33;11.63;;;16.00;50.60;;;;;;6207175;23;20368;-76
2023/04/17 11:28:02;;;;;;;14.63;11.27;;;16.10;50.30;;;;;;6209478;23;20389;-78
2023/04/17 11:30:43;;;;;;;12.93;11.63;;;16.00;49.80;;;;;;6185120;23;20429;-76
2023/04/17 11:33:11;;;;;;;13.33;10.43;;;15.90;49.10;;;;;;6210287;23;20357;-78
2023/04/17 11:35:40;;;;;;;12.37;9.87;;;15.90;49.40;;;;;;6235173;23;20456;-79
2023/04/17 11:38:11;;;;;;;13.20;10.67;;;15.80;50.00;;;;;;6237627;23;20348;-78
2023/04/17 11:40:54;;;;;;;12.33;10.90;;;15.80;50.30;;;;;;6186369;23;20495;-79
2023/04/17 11:43:22;;;;;;;11.93;10.07;;;15.70;50.50;;;;;;6238717;23;20360;-78
2023/04/17 11:45:52;;;;;;;18.23;11.80;;;15.50;50.80;;;;;;6186429;23;20377;-77
2023/04/17 11:48:29;;;;;;;12.13;10.57;;;15.40;50.50;;;;;;6214011;23;20389;-77
2023/04/17 11:51:17;;;;;;;14.57;10.70;;;15.30;50.80;;;;;;6213912;23;20369;-79
2023/04/17 11:53:47;;;;;;;13.30;10.57;;;15.40;51.00;;;;;;6185998;23;20436;-78
2023/04/17 11:56:17;;;;;;;17.17;11.70;;;15.30;50.70;;;;;;6210087;23;20365;-78
2023/04/17 11:58:48;;;;;;;14.33;11.00;;;15.30;51.00;;;;;;6210472;23;20425;-80
2023/04/17 12:01:14;;;;;;;9.90;8.47;;;15.30;50.70;;;;;;6210701;23;20350;-79
2023/04/17 12:03:40;;;;;;;11.60;9.13;;;15.40;50.10;;;;;;6185322;23;20374;-78
2023/04/17 12:06:05;;;;;;;10.73;8.77;;;15.40;49.50;;;;;;6207600;23;20392;-77
2023/04/17 12:08:43;;;;;;;10.70;8.83;;;15.50;49.40;;;;;;6205986;23;20157;-76
2023/04/17 12:11:21;;;;;;;10.13;9.10;;;15.60;49.20;;;;;;6210388;23;20157;-77
2023/04/17 12:13:47;;;;;;;9.43;7.57;;;15.70;49.50;;;;;;6183792;23;20380;-76
2023/04/17 12:16:13;;;;;;;10.10;7.83;;;15.80;48.50;;;;;;6208413;23;20377;-78
2023/04/17 12:18:39;;;;;;;8.73;7.87;;;15.80;48.10;;;;;;6185561;23;20150;-77
2023/04/17 12:21:04;;;;;;;11.00;8.47;;;15.80;47.70;;;;;;6182545;23;20484;-78
2023/04/17 12:23:30;;;;;;;12.43;8.17;;;16.00;47.40;;;;;;6207686;23;20137;-75
2023/04/17 12:25:56;;;;;;;8.83;7.90;;;16.20;47.40;;;;;;6187486;23;20150;-78
2023/04/17 12:28:21;;;;;;;9.10;7.67;;;16.30;47.00;;;;;;6184049;23;20419;-76
2023/04/17 12:30:47;;;;;;;8.93;8.03;;;16.50;46.80;;;;;;6206504;23;20173;-75